Hailstone, Utah
Current Conditions -  °F | °C
As of 4:15 AM on Sunday 23 Nov 2014 (Local Time) from K36U Reporting Station
Overcast Overcast  
Wind Chill: 24°   Ceiling: 4300
Heat Index: 32°   Visibility: 10mi
Dew Point: 23°   Wind: 10mph
Humidity: 69%   Direction: 220°SW
Pressure: 29.96"   Gusts: NA
Location:  40.2386°N, 111.149°W
Report Text: K36U 231115Z AUTO 22009KT 10SM SCT036 BKN043 OVC050 00/M05 A2996 RMK AO2
Loading
Personal Weather Stations






























Interactive Weather Map New forecast layout! Learn more

10-Day Weather Forecast

Advertisements
Track Severe Weather on mobile